sensor_id;sensor_type;location;lat;lon;timestamp;pressure;altitude;pressure_sealevel;temperature;humidity
80509;BME280;69838;52.602;13.434;2023-11-21T00:00:16;100361.19;;;5.35;100.00
80509;BME280;69838;52.602;13.434;2023-11-21T00:01:02;100359.38;;;5.36;100.00
80509;BME280;69838;52.602;13.434;2023-11-21T00:01:50;100363.09;;;5.32;100.00
80509;BME280;69838;52.602;13.434;2023-11-21T00:02:36;100362.25;;;5.30;100.00
80509;BME280;69838;52.602;13.434;2023-11-21T00:03:22;100355.16;;;5.29;100.00
80509;BME280;69838;52.602;13.434;2023-11-21T00:04:09;100363.22;;;5.27;100.00
80509;BME280;69838;52.602;13.434;2023-11-21T00:04:54;100355.34;;;5.23;100.00
80509;BME280;69838;52.602;13.434;2023-11-21T00:05:39;100360.72;;;5.23;100.00
80509;BME280;69838;52.602;13.434;2023-11-21T00:06:26;100358.09;;;5.21;100.00
80509;BME280;69838;52.602;13.434;2023-11-21T00:07:12;100366.06;;;5.23;100.00
80509;BME280;69838;52.602;13.434;2023-11-21T00:07:57;100360.81;;;5.20;100.00
80509;BME280;69838;52.602;13.434;2023-11-21T00:08:43;100365.34;;;5.18;100.00
80509;BME280;69838;52.602;13.434;2023-11-21T00:09:29;100366.25;;;5.16;100.00
80509;BME280;69838;52.602;13.434;2023-11-21T00:10:14;100364.50;;;5.15;100.00
80509;BME280;69838;52.602;13.434;2023-11-21T00:11:01;100372.53;;;5.15;100.00
80509;BME280;69838;52.602;13.434;2023-11-21T00:11:46;100368.09;;;5.14;100.00
80509;BME280;69838;52.602;13.434;2023-11-21T00:12:32;100376.28;;;5.10;100.00
80509;BME280;69838;52.602;13.434;2023-11-21T00:13:18;100376.38;;;5.07;100.00
80509;BME280;69838;52.602;13.434;2023-11-21T00:14:04;100372.06;;;5.03;100.00
80509;BME280;69838;52.602;13.434;2023-11-21T00:14:50;100371.97;;;5.04;100.00
80509;BME280;69838;52.602;13.434;2023-11-21T00:15:36;100375.59;;;5.03;100.00
80509;BME280;69838;52.602;13.434;2023-11-21T00:16:21;100377.34;;;5.04;100.00
80509;BME280;69838;52.602;13.434;2023-11-21T00:17:09;100377.41;;;5.03;100.00
80509;BME280;69838;52.602;13.434;2023-11-21T00:17:55;100373.84;;;5.02;100.00
80509;BME280;69838;52.602;13.434;2023-11-21T00:18:40;100375.72;;;4.98;100.00
80509;BME280;69838;52.602;13.434;2023-11-21T00:19:27;100376.69;;;4.97;100.00
80509;BME280;69838;52.602;13.434;2023-11-21T00:20:14;100374.88;;;4.98;100.00
80509;BME280;69838;52.602;13.434;2023-11-21T00:20:59;100377.53;;;4.98;100.00
80509;BME280;69838;52.602;13.434;2023-11-21T00:21:44;100380.22;;;4.98;100.00
80509;BME280;69838;52.602;13.434;2023-11-21T00:22:31;100380.22;;;4.98;100.00
80509;BME280;69838;52.602;13.434;2023-11-21T00:23:17;100379.41;;;4.96;100.00
80509;BME280;69838;52.602;13.434;2023-11-21T00:24:03;100383.88;;;4.95;100.00
80509;BME280;69838;52.602;13.434;2023-11-21T00:24:50;100390.09;;;4.96;100.00
80509;BME280;69838;52.602;13.434;2023-11-21T00:25:35;100385.69;;;4.93;100.00
80509;BME280;69838;52.602;13.434;2023-11-21T00:26:20;100391.06;;;4.93;100.00
80509;BME280;69838;52.602;13.434;2023-11-21T00:27:06;100391.06;;;4.93;100.00
80509;BME280;69838;52.602;13.434;2023-11-21T00:27:52;100388.44;;;4.92;100.00
80509;BME280;69838;52.602;13.434;2023-11-21T00:28:37;100393.81;;;4.92;100.00
80509;BME280;69838;52.602;13.434;2023-11-21T00:29:23;100393.81;;;4.92;100.00
80509;BME280;69838;52.602;13.434;2023-11-21T00:30:10;100398.25;;;4.91;100.00
80509;BME280;69838;52.602;13.434;2023-11-21T00:30:55;100386.69;;;4.91;100.00
80509;BME280;69838;52.602;13.434;2023-11-21T00:31:42;100393.03;;;4.88;100.00
80509;BME280;69838;52.602;13.434;2023-11-21T00:32:28;100394.78;;;4.88;100.00
80509;BME280;69838;52.602;13.434;2023-11-21T00:33:14;100395.81;;;4.84;100.00
80509;BME280;69838;52.602;13.434;2023-11-21T00:34:00;100399.53;;;4.80;100.00
80509;BME280;69838;52.602;13.434;2023-11-21T00:34:45;100397.66;;;4.82;100.00
80509;BME280;69838;52.602;13.434;2023-11-21T00:35:31;100398.53;;;4.82;100.00
80509;BME280;69838;52.602;13.434;2023-11-21T00:36:17;100402.03;;;4.84;100.00
80509;BME280;69838;52.602;13.434;2023-11-21T00:37:03;100399.41;;;4.83;100.00
80509;BME280;69838;52.602;13.434;2023-11-21T00:37:48;100402.94;;;4.85;100.00
80509;BME280;69838;52.602;13.434;2023-11-21T00:38:35;100395.00;;;4.82;100.00
80509;BME280;69838;52.602;13.434;2023-11-21T00:39:21;100398.63;;;4.79;100.00
80509;BME280;69838;52.602;13.434;2023-11-21T00:40:07;100399.59;;;4.76;100.00
80509;BME280;69838;52.602;13.434;2023-11-21T00:40:54;100404.13;;;4.74;100.00
80509;BME280;69838;52.602;13.434;2023-11-21T00:41:41;100392.59;;;4.72;100.00
80509;BME280;69838;52.602;13.434;2023-11-21T00:42:27;100400.66;;;4.71;100.00
80509;BME280;69838;52.602;13.434;2023-11-21T00:43:13;100406.88;;;4.71;100.00
80509;BME280;69838;52.602;13.434;2023-11-21T00:43:58;100395.31;;;4.71;100.00
80509;BME280;69838;52.602;13.434;2023-11-21T00:44:44;100400.59;;;4.74;100.00
80509;BME280;69838;52.602;13.434;2023-11-21T00:45:30;100400.50;;;4.75;100.00
80509;BME280;69838;52.602;13.434;2023-11-21T00:46:16;100397.13;;;4.70;100.00
80509;BME280;69838;52.602;13.434;2023-11-21T00:47:02;100405.97;;;4.72;100.00
80509;BME280;69838;52.602;13.434;2023-11-21T00:47:49;100409.53;;;4.73;100.00
80509;BME280;69838;52.602;13.434;2023-11-21T00:48:34;100399.88;;;4.67;100.00
80509;BME280;69838;52.602;13.434;2023-11-21T00:49:21;100404.25;;;4.70;100.00
80509;BME280;69838;52.602;13.434;2023-11-21T00:50:06;100405.22;;;4.67;100.00
80509;BME280;69838;52.602;13.434;2023-11-21T00:50:52;100410.59;;;4.67;100.00
80509;BME280;69838;52.602;13.434;2023-11-21T00:51:38;100412.44;;;4.65;100.00
80509;BME280;69838;52.602;13.434;2023-11-21T00:52:24;100412.50;;;4.62;100.00
80509;BME280;69838;52.602;13.434;2023-11-21T00:53:09;100408.81;;;4.66;100.00
80509;BME280;69838;52.602;13.434;2023-11-21T00:53:56;100406.19;;;4.65;100.00
80509;BME280;69838;52.602;13.434;2023-11-21T00:54:41;100409.75;;;4.65;100.00
80509;BME280;69838;52.602;13.434;2023-11-21T00:55:27;100407.03;;;4.67;100.00
80509;BME280;69838;52.602;13.434;2023-11-21T00:56:15;100405.31;;;4.64;100.00
80509;BME280;69838;52.602;13.434;2023-11-21T00:57:00;100412.50;;;4.62;100.00
80509;BME280;69838;52.602;13.434;2023-11-21T00:57:45;100401.00;;;4.60;100.00
80509;BME280;69838;52.602;13.434;2023-11-21T00:58:32;100412.50;;;4.62;100.00
80509;BME280;69838;52.602;13.434;2023-11-21T00:59:18;100415.19;;;4.62;100.00
80509;BME280;69838;52.602;13.434;2023-11-21T01:00:04;100408.03;;;4.63;100.00
80509;BME280;69838;52.602;13.434;2023-11-21T01:00:53;100410.66;;;4.64;100.00
80509;BME280;69838;52.602;13.434;2023-11-21T01:01:38;100412.56;;;4.61;100.00
80509;BME280;69838;52.602;13.434;2023-11-21T01:02:23;100412.50;;;4.62;100.00
80509;BME280;69838;52.602;13.434;2023-11-21T01:03:11;100415.19;;;4.62;100.00
80509;BME280;69838;52.602;13.434;2023-11-21T01:03:57;100412.50;;;4.62;100.00
80509;BME280;69838;52.602;13.434;2023-11-21T01:04:42;100410.66;;;4.64;100.00
80509;BME280;69838;52.602;13.434;2023-11-21T01:05:29;100417.84;;;4.62;100.00
80509;BME280;69838;52.602;13.434;2023-11-21T01:06:14;100415.09;;;4.65;100.00
80509;BME280;69838;52.602;13.434;2023-11-21T01:07:01;100415.19;;;4.62;100.00
80509;BME280;69838;52.602;13.434;2023-11-21T01:07:46;100418.72;;;4.63;100.00
80509;BME280;69838;52.602;13.434;2023-11-21T01:08:32;100411.75;;;4.57;100.00
80509;BME280;69838;52.602;13.434;2023-11-21T01:09:18;100420.75;;;4.54;100.00
80509;BME280;69838;52.602;13.434;2023-11-21T01:10:04;100418.06;;;4.56;100.00
80509;BME280;69838;52.602;13.434;2023-11-21T01:10:52;100418.13;;;4.53;100.00
80509;BME280;69838;52.602;13.434;2023-11-21T01:11:38;100419.88;;;4.54;100.00
80509;BME280;69838;52.602;13.434;2023-11-21T01:12:24;100421.72;;;4.52;100.00
80509;BME280;69838;52.602;13.434;2023-11-21T01:13:10;100432.41;;;4.52;100.00
80509;BME280;69838;52.602;13.434;2023-11-21T01:13:56;100420.81;;;4.53;100.00
80509;BME280;69838;52.602;13.434;2023-11-21T01:14:41;100425.22;;;4.54;100.00
80509;BME280;69838;52.602;13.434;2023-11-21T01:15:27;100425.22;;;4.54;100.00
80509;BME280;69838;52.602;13.434;2023-11-21T01:16:13;100430.56;;;4.54;100.00
80509;BME280;69838;52.602;13.434;2023-11-21T01:16:58;100429.72;;;4.52;100.00
80509;BME280;69838;52.602;13.434;2023-11-21T01:17:44;100432.41;;;4.52;100.00
80509;BME280;69838;52.602;13.434;2023-11-21T01:18:31;100436.81;;;4.54;100.00
80509;BME280;69838;52.602;13.434;2023-11-21T01:19:17;100440.47;;;4.50;100.00
80509;BME280;69838;52.602;13.434;2023-11-21T01:20:03;100440.69;;;4.43;100.00
80509;BME280;69838;52.602;13.434;2023-11-21T01:20:51;100437.94;;;4.46;100.00
80509;BME280;69838;52.602;13.434;2023-11-21T01:21:38;100438.81;;;4.46;100.00
80509;BME280;69838;52.602;13.434;2023-11-21T01:22:23;100437.94;;;4.46;100.00
80509;BME280;69838;52.602;13.434;2023-11-21T01:23:11;100445.91;;;4.47;100.00
80509;BME280;69838;52.602;13.434;2023-11-21T01:23:56;100437.06;;;4.45;100.00
80509;BME280;69838;52.602;13.434;2023-11-21T01:24:41;100440.59;;;4.46;100.00
80509;BME280;69838;52.602;13.434;2023-11-21T01:25:28;100446.88;;;4.45;100.00
80509;BME280;69838;52.602;13.434;2023-11-21T01:26:13;100443.28;;;4.46;100.00
80509;BME280;69838;52.602;13.434;2023-11-21T01:26:58;100445.03;;;4.47;100.00
80509;BME280;69838;52.602;13.434;2023-11-21T01:27:45;100447.84;;;4.42;100.00
80509;BME280;69838;52.602;13.434;2023-11-21T01:28:30;100447.81;;;4.44;100.00
80509;BME280;69838;52.602;13.434;2023-11-21T01:29:17;100449.56;;;4.43;100.00
80509;BME280;69838;52.602;13.434;2023-11-21T01:30:03;100451.53;;;4.38;100.00
80509;BME280;69838;52.602;13.434;2023-11-21T01:30:48;100455.91;;;4.40;100.00
80509;BME280;69838;52.602;13.434;2023-11-21T01:31:35;100452.41;;;4.38;100.00
80509;BME280;69838;52.602;13.434;2023-11-21T01:32:20;100455.06;;;4.38;100.00
80509;BME280;69838;52.602;13.434;2023-11-21T01:33:05;100456.91;;;4.36;100.00
80509;BME280;69838;52.602;13.434;2023-11-21T01:33:53;100452.44;;;4.37;100.00
80509;BME280;69838;52.602;13.434;2023-11-21T01:34:40;100447.13;;;4.35;100.00
80509;BME280;69838;52.602;13.434;2023-11-21T01:35:25;100457.84;;;4.34;100.00
80509;BME280;69838;52.602;13.434;2023-11-21T01:36:11;100458.75;;;4.34;100.00
80509;BME280;69838;52.602;13.434;2023-11-21T01:36:57;100456.94;;;4.35;100.00
80509;BME280;69838;52.602;13.434;2023-11-21T01:37:42;100452.53;;;4.32;100.00
80509;BME280;69838;52.602;13.434;2023-11-21T01:38:28;100456.97;;;4.33;100.00
80509;BME280;69838;52.602;13.434;2023-11-21T01:39:15;100466.81;;;4.33;100.00
80509;BME280;69838;52.602;13.434;2023-11-21T01:40:01;100463.22;;;4.32;100.00
80509;BME280;69838;52.602;13.434;2023-11-21T01:40:47;100456.16;;;4.31;100.00
80509;BME280;69838;52.602;13.434;2023-11-21T01:41:33;100458.78;;;4.33;100.00
80509;BME280;69838;52.602;13.434;2023-11-21T01:42:18;100460.66;;;4.29;100.00
80509;BME280;69838;52.602;13.434;2023-11-21T01:43:04;100459.72;;;4.30;100.00
80509;BME280;69838;52.602;13.434;2023-11-21T01:43:50;100459.03;;;4.24;100.00
80509;BME280;69838;52.602;13.434;2023-11-21T01:44:36;100464.28;;;4.27;100.00
80509;BME280;69838;52.602;13.434;2023-11-21T01:45:22;100462.50;;;4.27;100.00
80509;BME280;69838;52.602;13.434;2023-11-21T01:46:10;100456.31;;;4.25;100.00
80509;BME280;69838;52.602;13.434;2023-11-21T01:46:56;100461.66;;;4.25;100.00
80509;BME280;69838;52.602;13.434;2023-11-21T01:47:44;100456.38;;;4.24;100.00
80509;BME280;69838;52.602;13.434;2023-11-21T01:48:30;100459.91;;;4.24;100.00
80509;BME280;69838;52.602;13.434;2023-11-21T01:49:17;100456.41;;;4.22;100.00
80509;BME280;69838;52.602;13.434;2023-11-21T01:50:04;100459.91;;;4.24;100.00
80509;BME280;69838;52.602;13.434;2023-11-21T01:50:51;100464.28;;;4.27;100.00
80509;BME280;69838;52.602;13.434;2023-11-21T01:51:37;100456.31;;;4.25;100.00
80509;BME280;69838;52.602;13.434;2023-11-21T01:52:23;100459.88;;;4.26;100.00
80509;BME280;69838;52.602;13.434;2023-11-21T01:53:11;100458.97;;;4.25;100.00
80509;BME280;69838;52.602;13.434;2023-11-21T01:53:58;100467.00;;;4.25;100.00
80509;BME280;69838;52.602;13.434;2023-11-21T01:54:45;100456.41;;;4.22;100.00
80509;BME280;69838;52.602;13.434;2023-11-21T01:55:30;100460.81;;;4.23;100.00
80509;BME280;69838;52.602;13.434;2023-11-21T01:56:16;100471.47;;;4.25;100.00
80509;BME280;69838;52.602;13.434;2023-11-21T01:57:03;100465.28;;;4.23;100.00
80509;BME280;69838;52.602;13.434;2023-11-21T01:57:51;100475.13;;;4.22;100.00
80509;BME280;69838;52.602;13.434;2023-11-21T01:58:36;100460.84;;;4.21;100.00
80509;BME280;69838;52.602;13.434;2023-11-21T01:59:23;100467.09;;;4.22;100.00
80509;BME280;69838;52.602;13.434;2023-11-21T02:00:10;100465.34;;;4.21;100.00
80509;BME280;69838;52.602;13.434;2023-11-21T02:01:00;100473.28;;;4.24;100.00
80509;BME280;69838;52.602;13.434;2023-11-21T02:01:46;100459.91;;;4.24;100.00
80509;BME280;69838;52.602;13.434;2023-11-21T02:02:32;100460.81;;;4.23;100.00
80509;BME280;69838;52.602;13.434;2023-11-21T02:03:17;100468.00;;;4.21;100.00
80509;BME280;69838;52.602;13.434;2023-11-21T02:04:04;100463.59;;;4.20;100.00
80509;BME280;69838;52.602;13.434;2023-11-21T02:04:51;100470.69;;;4.21;100.00
80509;BME280;69838;52.602;13.434;2023-11-21T02:05:36;100476.03;;;4.21;100.00
80509;BME280;69838;52.602;13.434;2023-11-21T02:06:22;100470.69;;;4.21;100.00
80509;BME280;69838;52.602;13.434;2023-11-21T02:07:09;100480.50;;;4.20;100.00
80509;BME280;69838;52.602;13.434;2023-11-21T02:07:55;100479.63;;;4.20;100.00
80509;BME280;69838;52.602;13.434;2023-11-21T02:08:41;100478.72;;;4.19;100.00
80509;BME280;69838;52.602;13.434;2023-11-21T02:09:29;100478.84;;;4.16;100.00
80509;BME280;69838;52.602;13.434;2023-11-21T02:10:15;100477.00;;;4.18;100.00
80509;BME280;69838;52.602;13.434;2023-11-21T02:11:01;100473.50;;;4.16;100.00
80509;BME280;69838;52.602;13.434;2023-11-21T02:11:47;100476.09;;;4.18;100.00
80509;BME280;69838;52.602;13.434;2023-11-21T02:12:34;100476.09;;;4.18;100.00
80509;BME280;69838;52.602;13.434;2023-11-21T02:13:21;100476.16;;;4.16;100.00
80509;BME280;69838;52.602;13.434;2023-11-21T02:14:06;100475.28;;;4.14;100.00
80509;BME280;69838;52.602;13.434;2023-11-21T02:14:54;100475.25;;;4.16;100.00
80509;BME280;69838;52.602;13.434;2023-11-21T02:15:40;100474.34;;;4.17;100.00
80509;BME280;69838;52.602;13.434;2023-11-21T02:16:26;100478.03;;;4.13;100.00
80509;BME280;69838;52.602;13.434;2023-11-21T02:17:16;100476.25;;;4.12;100.00
80509;BME280;69838;52.602;13.434;2023-11-21T02:18:03;100482.47;;;4.12;100.00
80509;BME280;69838;52.602;13.434;2023-11-21T02:18:51;100478.03;;;4.13;100.00
80509;BME280;69838;52.602;13.434;2023-11-21T02:19:37;100479.84;;;4.11;100.00
80509;BME280;69838;52.602;13.434;2023-11-21T02:20:24;100482.59;;;4.09;100.00
80509;BME280;69838;52.602;13.434;2023-11-21T02:21:11;100479.16;;;4.04;100.00
80509;BME280;69838;52.602;13.434;2023-11-21T02:21:59;100487.13;;;4.06;100.00
80509;BME280;69838;52.602;13.434;2023-11-21T02:22:50;100488.88;;;4.07;100.00
80509;BME280;69838;52.602;13.434;2023-11-21T02:23:38;100492.38;;;4.09;100.00
80509;BME280;69838;52.602;13.434;2023-11-21T02:24:27;100484.34;;;4.09;100.00
80509;BME280;69838;52.602;13.434;2023-11-21T02:25:12;100484.47;;;4.06;100.00
80509;BME280;69838;52.602;13.434;2023-11-21T02:25:59;100495.03;;;4.09;100.00
80509;BME280;69838;52.602;13.434;2023-11-21T02:26:49;100487.84;;;4.11;100.00
80509;BME280;69838;52.602;13.434;2023-11-21T02:27:36;100494.13;;;4.10;100.00
80509;BME280;69838;52.602;13.434;2023-11-21T02:28:22;100490.59;;;4.09;100.00
80509;BME280;69838;52.602;13.434;2023-11-21T02:29:11;100490.63;;;4.08;100.00
80509;BME280;69838;52.602;13.434;2023-11-21T02:29:57;100489.72;;;4.07;100.00
80509;BME280;69838;52.602;13.434;2023-11-21T02:30:43;100488.88;;;4.07;100.00
80509;BME280;69838;52.602;13.434;2023-11-21T02:31:30;100490.69;;;4.05;100.00
80509;BME280;69838;52.602;13.434;2023-11-21T02:32:15;100494.28;;;4.04;100.00
80509;BME280;69838;52.602;13.434;2023-11-21T02:33:02;100492.38;;;4.09;100.00
80509;BME280;69838;52.602;13.434;2023-11-21T02:33:48;100495.03;;;4.09;100.00
80509;BME280;69838;52.602;13.434;2023-11-21T02:34:34;100501.31;;;4.08;100.00
80509;BME280;69838;52.602;13.434;2023-11-21T02:35:19;100501.34;;;4.06;100.00
80509;BME280;69838;52.602;13.434;2023-11-21T02:36:06;100498.69;;;4.06;100.00
80509;BME280;69838;52.602;13.434;2023-11-21T02:36:52;100483.72;;;3.99;100.00
80509;BME280;69838;52.602;13.434;2023-11-21T02:37:37;100498.69;;;4.06;100.00
80509;BME280;69838;52.602;13.434;2023-11-21T02:38:26;100503.16;;;4.06;100.00
80509;BME280;69838;52.602;13.434;2023-11-21T02:39:11;100502.25;;;4.05;100.00
80509;BME280;69838;52.602;13.434;2023-11-21T02:39:58;100506.72;;;4.05;100.00
80509;BME280;69838;52.602;13.434;2023-11-21T02:40:44;100495.13;;;4.06;100.00
80509;BME280;69838;52.602;13.434;2023-11-21T02:41:30;100500.59;;;4.01;100.00
80509;BME280;69838;52.602;13.434;2023-11-21T02:42:16;100501.47;;;4.01;100.00
80509;BME280;69838;52.602;13.434;2023-11-21T02:43:01;100497.88;;;4.03;100.00
80509;BME280;69838;52.602;13.434;2023-11-21T02:43:47;100490.78;;;4.01;100.00
80509;BME280;69838;52.602;13.434;2023-11-21T02:44:33;100497.88;;;4.03;100.00
80509;BME280;69838;52.602;13.434;2023-11-21T02:45:19;100497.09;;;3.99;100.00
80509;BME280;69838;52.602;13.434;2023-11-21T02:46:06;100502.38;;;4.00;100.00
80509;BME280;69838;52.602;13.434;2023-11-21T02:46:52;100506.00;;;3.98;100.00
80509;BME280;69838;52.602;13.434;2023-11-21T02:47:37;100496.28;;;3.95;100.00
80509;BME280;69838;52.602;13.434;2023-11-21T02:48:23;100507.84;;;3.96;100.00
80509;BME280;69838;52.602;13.434;2023-11-21T02:49:10;100500.66;;;3.98;100.00
80509;BME280;69838;52.602;13.434;2023-11-21T02:49:57;100504.16;;;4.00;100.00
80509;BME280;69838;52.602;13.434;2023-11-21T02:50:42;100503.38;;;3.96;100.00
80509;BME280;69838;52.602;13.434;2023-11-21T02:51:28;100502.47;;;3.97;100.00
80509;BME280;69838;52.602;13.434;2023-11-21T02:52:14;100505.13;;;3.97;100.00
80509;BME280;69838;52.602;13.434;2023-11-21T02:52:59;100503.28;;;3.99;100.00
80509;BME280;69838;52.602;13.434;2023-11-21T02:53:48;100505.13;;;3.97;100.00
80509;BME280;69838;52.602;13.434;2023-11-21T02:54:33;100506.97;;;3.95;100.00
80509;BME280;69838;52.602;13.434;2023-11-21T02:55:21;100502.53;;;3.94;100.00
80509;BME280;69838;52.602;13.434;2023-11-21T02:56:10;100507.03;;;3.92;100.00
80509;BME280;69838;52.602;13.434;2023-11-21T02:56:55;100510.63;;;3.91;100.00
80509;BME280;69838;52.602;13.434;2023-11-21T02:57:41;100506.13;;;3.93;100.00
80509;BME280;69838;52.602;13.434;2023-11-21T02:58:26;100507.03;;;3.92;100.00
80509;BME280;69838;52.602;13.434;2023-11-21T02:59:12;100500.81;;;3.92;100.00
80509;BME280;69838;52.602;13.434;2023-11-21T02:59:58;100509.63;;;3.95;100.00
80509;BME280;69838;52.602;13.434;2023-11-21T03:00:44;100501.63;;;3.95;100.00
80509;BME280;69838;52.602;13.434;2023-11-21T03:01:31;100499.78;;;3.97;100.00
80509;BME280;69838;52.602;13.434;2023-11-21T03:02:16;100505.13;;;3.97;100.00
80509;BME280;69838;52.602;13.434;2023-11-21T03:03:02;100498.91;;;3.97;100.00
80509;BME280;69838;52.602;13.434;2023-11-21T03:03:49;100512.31;;;3.95;100.00
80509;BME280;69838;52.602;13.434;2023-11-21T03:04:36;100500.66;;;3.98;100.00
80509;BME280;69838;52.602;13.434;2023-11-21T03:05:21;100503.38;;;3.96;100.00
80509;BME280;69838;52.602;13.434;2023-11-21T03:06:07;100507.00;;;3.94;100.00
80509;BME280;69838;52.602;13.434;2023-11-21T03:06:53;100494.63;;;3.91;100.00
80509;BME280;69838;52.602;13.434;2023-11-21T03:07:39;100513.16;;;3.97;100.00
80509;BME280;69838;52.602;13.434;2023-11-21T03:08:25;100512.31;;;3.95;100.00
80509;BME280;69838;52.602;13.434;2023-11-21T03:09:12;100505.19;;;3.94;100.00
80509;BME280;69838;52.602;13.434;2023-11-21T03:09:57;100503.50;;;3.92;100.00
80509;BME280;69838;52.602;13.434;2023-11-21T03:10:43;100514.16;;;3.93;100.00
80509;BME280;69838;52.602;13.434;2023-11-21T03:11:29;100514.16;;;3.93;100.00
80509;BME280;69838;52.602;13.434;2023-11-21T03:12:14;100512.38;;;3.92;100.00
80509;BME280;69838;52.602;13.434;2023-11-21T03:13:01;100512.31;;;3.95;100.00
80509;BME280;69838;52.602;13.434;2023-11-21T03:13:47;100515.97;;;3.91;100.00
80509;BME280;69838;52.602;13.434;2023-11-21T03:14:32;100514.16;;;3.93;100.00
80509;BME280;69838;52.602;13.434;2023-11-21T03:15:18;100516.88;;;3.90;100.00
80509;BME280;69838;52.602;13.434;2023-11-21T03:16:05;100523.13;;;3.89;100.00
80509;BME280;69838;52.602;13.434;2023-11-21T03:16:51;100520.47;;;3.89;100.00
80509;BME280;69838;52.602;13.434;2023-11-21T03:17:36;100518.72;;;3.88;100.00
80509;BME280;69838;52.602;13.434;2023-11-21T03:18:22;100517.78;;;3.89;100.00
80509;BME280;69838;52.602;13.434;2023-11-21T03:19:08;100521.38;;;3.88;100.00
80509;BME280;69838;52.602;13.434;2023-11-21T03:19:53;100515.22;;;3.86;100.00
80509;BME280;69838;52.602;13.434;2023-11-21T03:20:39;100525.78;;;3.89;100.00
80509;BME280;69838;52.602;13.434;2023-11-21T03:21:25;100521.38;;;3.88;100.00
80509;BME280;69838;52.602;13.434;2023-11-21T03:22:11;100532.97;;;3.87;100.00
80509;BME280;69838;52.602;13.434;2023-11-21T03:22:57;100517.88;;;3.86;100.00
80509;BME280;69838;52.602;13.434;2023-11-21T03:23:44;100531.22;;;3.86;100.00
80509;BME280;69838;52.602;13.434;2023-11-21T03:24:31;100528.56;;;3.86;100.00
80509;BME280;69838;52.602;13.434;2023-11-21T03:25:17;100526.78;;;3.85;100.00
80509;BME280;69838;52.602;13.434;2023-11-21T03:26:03;100525.09;;;3.82;100.00
80509;BME280;69838;52.602;13.434;2023-11-21T03:26:49;100529.47;;;3.85;100.00
80509;BME280;69838;52.602;13.434;2023-11-21T03:27:36;100533.97;;;3.83;100.00
80509;BME280;69838;52.602;13.434;2023-11-21T03:28:22;100537.50;;;3.83;100.00
80509;BME280;69838;52.602;13.434;2023-11-21T03:29:08;100539.31;;;3.83;100.00
80509;BME280;69838;52.602;13.434;2023-11-21T03:29:55;100537.47;;;3.85;100.00
80509;BME280;69838;52.602;13.434;2023-11-21T03:30:41;100548.19;;;3.83;100.00
80509;BME280;69838;52.602;13.434;2023-11-21T03:31:26;100542.88;;;3.82;100.00
80509;BME280;69838;52.602;13.434;2023-11-21T03:32:13;100544.66;;;3.83;100.00
80509;BME280;69838;52.602;13.434;2023-11-21T03:32:58;100538.47;;;3.81;100.00
80509;BME280;69838;52.602;13.434;2023-11-21T03:33:44;100546.44;;;3.84;100.00
80509;BME280;69838;52.602;13.434;2023-11-21T03:34:30;100546.44;;;3.84;100.00
80509;BME280;69838;52.602;13.434;2023-11-21T03:35:15;100550.00;;;3.83;100.00
80509;BME280;69838;52.602;13.434;2023-11-21T03:36:01;100544.69;;;3.81;100.00
80509;BME280;69838;52.602;13.434;2023-11-21T03:36:48;100551.81;;;3.81;100.00
80509;BME280;69838;52.602;13.434;2023-11-21T03:37:34;100548.31;;;3.79;100.00
80509;BME280;69838;52.602;13.434;2023-11-21T03:38:20;100551.94;;;3.76;100.00
80509;BME280;69838;52.602;13.434;2023-11-21T03:39:06;100551.94;;;3.75;100.00
80509;BME280;69838;52.602;13.434;2023-11-21T03:39:54;100552.88;;;3.74;100.00
80509;BME280;69838;52.602;13.434;2023-11-21T03:40:40;100551.13;;;3.73;100.00
80509;BME280;69838;52.602;13.434;2023-11-21T03:41:26;100554.72;;;3.72;100.00
80509;BME280;69838;52.602;13.434;2023-11-21T03:42:11;100554.69;;;3.73;100.00
80509;BME280;69838;52.602;13.434;2023-11-21T03:42:57;100552.06;;;3.72;100.00
80509;BME280;69838;52.602;13.434;2023-11-21T03:43:43;100551.16;;;3.71;100.00
80509;BME280;69838;52.602;13.434;2023-11-21T03:44:29;100549.41;;;3.70;100.00
80509;BME280;69838;52.602;13.434;2023-11-21T03:45:14;100553.91;;;3.68;100.00
80509;BME280;69838;52.602;13.434;2023-11-21T03:46:01;100562.81;;;3.67;100.00
80509;BME280;69838;52.602;13.434;2023-11-21T03:46:46;100559.22;;;3.70;100.00
80509;BME280;69838;52.602;13.434;2023-11-21T03:47:31;100553.88;;;3.70;100.00
80509;BME280;69838;52.602;13.434;2023-11-21T03:48:18;100561.03;;;3.68;100.00
80509;BME280;69838;52.602;13.434;2023-11-21T03:49:03;100555.69;;;3.68;100.00
80509;BME280;69838;52.602;13.434;2023-11-21T03:49:48;100558.41;;;3.66;100.00
80509;BME280;69838;52.602;13.434;2023-11-21T03:50:35;100554.84;;;3.66;100.00
80509;BME280;69838;52.602;13.434;2023-11-21T03:51:20;100559.31;;;3.65;100.00
80509;BME280;69838;52.602;13.434;2023-11-21T03:52:06;100560.19;;;3.66;100.00
80509;BME280;69838;52.602;13.434;2023-11-21T03:52:52;100562.84;;;3.66;100.00
80509;BME280;69838;52.602;13.434;2023-11-21T03:53:38;100557.50;;;3.66;100.00
80509;BME280;69838;52.602;13.434;2023-11-21T03:54:24;100564.66;;;3.65;100.00
80509;BME280;69838;52.602;13.434;2023-11-21T03:55:11;100565.56;;;3.64;100.00
80509;BME280;69838;52.602;13.434;2023-11-21T03:55:57;100555.78;;;3.65;100.00
80509;BME280;69838;52.602;13.434;2023-11-21T03:56:43;100566.47;;;3.65;100.00
80509;BME280;69838;52.602;13.434;2023-11-21T03:57:29;100561.03;;;3.68;100.00
80509;BME280;69838;52.602;13.434;2023-11-21T03:58:14;100564.63;;;3.67;100.00